Time;durP1;ratioP1;P1;durP2;ratioP2;P2;SDS_P1;SDS_P2;PMS_P1;PMS_P2;Temp;Humidity;BMP_temperature;BMP_pressure;BME280_temperature;BME280_humidity;BME280_pressure;Samples;Min_cycle;Max_cycle;Signal;HPM_P1;HPM_P2
2022/01/02 00:00:15;;;;;;;17.35;11.45;;;7.50;99.90;;;;;;5052913;28;20403;-46
2022/01/02 00:02:42;;;;;;;20.17;13.48;;;7.40;99.90;;;;;;5088955;28;20043;-50
2022/01/02 00:05:12;;;;;;;23.48;13.82;;;7.50;99.90;;;;;;5089170;28;20406;-48
2022/01/02 00:08:03;;;;;;;21.40;14.93;;;7.60;99.90;;;;;;5088126;28;20024;-50
2022/01/02 00:10:33;;;;;;;23.55;14.52;;;7.70;99.90;;;;;;5091418;28;20051;-48
2022/01/02 00:13:00;;;;;;;25.10;16.40;;;7.70;99.90;;;;;;5072431;28;20689;-50
2022/01/02 00:15:26;;;;;;;26.38;15.98;;;7.70;99.90;;;;;;5090211;28;20067;-48
2022/01/02 00:17:54;;;;;;;21.92;15.32;;;7.70;99.90;;;;;;5072162;28;20067;-52
2022/01/02 00:20:32;;;;;;;28.17;16.88;;;7.80;99.90;;;;;;5089398;28;20552;-47
2022/01/02 00:23:04;;;;;;;30.83;15.38;;;7.70;99.90;;;;;;5050337;28;20040;-52
2022/01/02 00:25:34;;;;;;;23.50;15.05;;;7.70;99.90;;;;;;5049789;28;20021;-51
2022/01/02 00:28:00;;;;;;;24.65;16.35;;;7.70;99.90;;;;;;5049879;28;20043;-51
2022/01/02 00:30:26;;;;;;;25.00;15.32;;;7.80;99.90;;;;;;5049585;28;20108;-49
2022/01/02 00:32:52;;;;;;;27.08;16.05;;;7.90;99.90;;;;;;5065499;28;20551;-45
2022/01/02 00:35:18;;;;;;;25.58;15.70;;;8.00;99.90;;;;;;5051563;28;20115;-53
2022/01/02 00:37:44;;;;;;;26.42;17.42;;;8.00;99.90;;;;;;5069252;28;20044;-47
2022/01/02 00:40:13;;;;;;;30.77;16.58;;;8.00;99.90;;;;;;5071314;28;20161;-49
2022/01/02 00:42:42;;;;;;;26.98;16.52;;;7.90;99.90;;;;;;5089694;28;20046;-44
2022/01/02 00:45:14;;;;;;;26.98;16.65;;;7.90;99.90;;;;;;5090089;28;20879;-46
2022/01/02 00:48:06;;;;;;;26.10;16.77;;;7.90;99.90;;;;;;5089904;28;20028;-50
2022/01/02 00:50:37;;;;;;;26.05;16.33;;;7.80;99.90;;;;;;5105937;22;20416;-51
2022/01/02 00:53:05;;;;;;;28.10;16.23;;;7.80;99.90;;;;;;5091917;28;20564;-51
2022/01/02 00:55:34;;;;;;;27.42;15.65;;;7.80;99.90;;;;;;5091849;28;20042;-52
2022/01/02 00:58:03;;;;;;;21.65;14.65;;;7.70;99.90;;;;;;5092331;28;20082;-50
2022/01/02 01:00:30;;;;;;;20.90;14.50;;;7.50;99.90;;;;;;5092008;28;20373;-51
2022/01/02 01:02:58;;;;;;;33.28;15.27;;;7.50;99.90;;;;;;5092508;28;20024;-49
2022/01/02 01:05:27;;;;;;;22.77;13.93;;;7.40;99.90;;;;;;5092276;28;20023;-48
2022/01/02 01:07:55;;;;;;;18.77;12.52;;;7.30;99.90;;;;;;5092292;28;20022;-49
2022/01/02 01:10:23;;;;;;;24.27;14.57;;;7.20;99.90;;;;;;5074132;28;20019;-49
2022/01/02 01:12:52;;;;;;;27.15;13.95;;;7.10;99.90;;;;;;5092354;28;20024;-52
2022/01/02 01:15:18;;;;;;;33.83;13.77;;;7.00;99.90;;;;;;5092222;28;20142;-55
2022/01/02 01:17:45;;;;;;;45.70;14.13;;;7.10;99.90;;;;;;5092112;28;20024;-53
2022/01/02 01:20:14;;;;;;;34.53;13.10;;;7.10;99.90;;;;;;5073570;28;20036;-50
2022/01/02 01:22:41;;;;;;;17.85;12.35;;;7.20;99.90;;;;;;5091884;28;20020;-51
2022/01/02 01:25:13;;;;;;;22.20;12.45;;;7.10;99.90;;;;;;5092186;28;20506;-49
2022/01/02 01:27:39;;;;;;;20.70;13.43;;;7.00;99.90;;;;;;5091956;28;20051;-51
2022/01/02 01:30:06;;;;;;;21.15;12.35;;;6.90;99.90;;;;;;5091933;28;20017;-52
2022/01/02 01:32:32;;;;;;;19.73;11.40;;;6.90;99.90;;;;;;5091891;28;20424;-50
2022/01/02 01:34:57;;;;;;;26.58;11.55;;;6.70;99.90;;;;;;5091773;28;20067;-48
2022/01/02 01:37:23;;;;;;;17.83;11.80;;;6.70;99.90;;;;;;5091930;28;20502;-50
2022/01/02 01:39:48;;;;;;;16.65;12.02;;;6.80;99.90;;;;;;5091593;28;20028;-52
2022/01/02 01:42:14;;;;;;;27.10;11.02;;;6.70;99.90;;;;;;5091529;28;20025;-50
2022/01/02 01:47:15;;;;;;;46.90;14.90;;;6.90;99.90;;;;;;5091775;28;20024;-51
2022/01/02 01:49:40;;;;;;;100.65;16.85;;;6.80;99.90;;;;;;5091046;28;20181;-52
2022/01/02 01:52:06;;;;;;;115.65;18.58;;;6.80;99.90;;;;;;5073530;28;20032;-50
2022/01/02 01:54:31;;;;;;;112.20;19.30;;;6.90;99.90;;;;;;5073693;28;20395;-55
2022/01/02 01:56:57;;;;;;;80.78;17.58;;;6.90;99.90;;;;;;5091831;28;20560;-51
2022/01/02 01:59:23;;;;;;;45.42;16.65;;;6.90;99.90;;;;;;5091339;28;20270;-54
2022/01/02 02:01:50;;;;;;;28.35;15.20;;;6.90;99.90;;;;;;5091454;28;20028;-54
2022/01/02 02:04:16;;;;;;;23.85;13.95;;;6.90;99.90;;;;;;5091419;28;20448;-49
2022/01/02 02:06:42;;;;;;;20.35;12.20;;;6.70;99.90;;;;;;5091041;28;20490;-51
2022/01/02 02:09:08;;;;;;;50.53;12.63;;;6.50;99.90;;;;;;5093512;28;20053;-48
2022/01/02 02:11:39;;;;;;;68.05;13.85;;;6.40;99.90;;;;;;5095597;28;20433;-52
2022/01/02 02:14:06;;;;;;;20.35;11.50;;;6.40;99.90;;;;;;5095639;28;20402;-50
2022/01/02 02:16:34;;;;;;;18.10;12.98;;;6.60;99.90;;;;;;5095536;28;20024;-49
2022/01/02 02:18:59;;;;;;;18.75;10.63;;;6.60;99.90;;;;;;5095774;28;20036;-51
2022/01/02 02:21:36;;;;;;;15.88;11.73;;;6.60;99.90;;;;;;5095013;28;20073;-49
2022/01/02 02:24:03;;;;;;;16.42;10.52;;;6.40;99.90;;;;;;5095373;28;20024;-51
2022/01/02 02:26:30;;;;;;;25.27;10.77;;;6.40;99.90;;;;;;5095249;28;20044;-50
2022/01/02 02:28:56;;;;;;;25.88;10.48;;;6.40;99.90;;;;;;5095144;28;20024;-51
2022/01/02 02:31:21;;;;;;;23.88;11.75;;;6.70;99.90;;;;;;5094925;28;20031;-53
2022/01/02 02:33:47;;;;;;;36.97;12.32;;;6.80;99.90;;;;;;5095045;28;20024;-53
2022/01/02 02:36:13;;;;;;;29.08;14.50;;;6.80;99.90;;;;;;5095371;28;20032;-49
2022/01/02 02:38:40;;;;;;;136.93;14.77;;;6.80;99.90;;;;;;5095330;28;20446;-49
2022/01/02 02:41:05;;;;;;;116.65;15.73;;;6.70;99.90;;;;;;5094729;28;20482;-54
2022/01/02 02:43:38;;;;;;;149.00;17.33;;;6.70;99.90;;;;;;5094884;28;20042;-52
2022/01/02 02:52:25;;;;;;;115.47;16.00;;;6.60;99.90;;;;;;5094669;28;20024;-49
2022/01/02 02:54:27;;;;;;;125.70;16.30;;;6.60;99.90;;;;;;5087143;28;20066;-53
2022/01/02 02:56:56;;;;;;;43.78;14.45;;;6.60;99.90;;;;;;5094804;28;20059;-51
2022/01/02 02:59:23;;;;;;;45.50;14.13;;;6.60;99.90;;;;;;5094541;28;20055;-49
2022/01/02 03:01:50;;;;;;;82.00;14.10;;;6.60;99.90;;;;;;5094495;28;20027;-54
2022/01/02 03:04:15;;;;;;;39.00;13.70;;;6.50;99.90;;;;;;5094596;28;20047;-50
2022/01/02 03:06:41;;;;;;;42.25;13.00;;;6.50;99.90;;;;;;5094203;28;20052;-52
2022/01/02 03:09:08;;;;;;;27.90;12.15;;;6.40;99.90;;;;;;5094224;28;20049;-49
2022/01/02 03:11:36;;;;;;;26.38;11.80;;;6.40;99.90;;;;;;5094447;28;20035;-51
2022/01/02 03:14:03;;;;;;;19.95;12.07;;;6.40;99.90;;;;;;5094757;28;20020;-55
2022/01/02 03:16:29;;;;;;;38.80;12.52;;;6.40;99.90;;;;;;5094371;28;20586;-51
2022/01/02 03:18:54;;;;;;;34.35;11.93;;;6.40;99.90;;;;;;5093543;28;20111;-50
2022/01/02 03:21:21;;;;;;;31.67;13.52;;;6.40;99.90;;;;;;5093963;28;20034;-51
2022/01/02 03:23:46;;;;;;;26.58;13.65;;;6.50;99.90;;;;;;5094339;28;20024;-52
2022/01/02 03:26:12;;;;;;;81.75;15.73;;;6.50;99.90;;;;;;5094148;28;20027;-51
2022/01/02 03:28:38;;;;;;;68.32;17.45;;;6.50;99.90;;;;;;5094096;28;20035;-51
2022/01/02 03:31:04;;;;;;;64.25;15.40;;;6.60;99.90;;;;;;5075760;28;20028;-50
2022/01/02 03:33:29;;;;;;;53.28;15.30;;;6.70;99.90;;;;;;5093867;28;20028;-51
2022/01/02 03:35:55;;;;;;;98.50;17.75;;;6.70;99.90;;;;;;5094027;28;20024;-50
2022/01/02 03:38:21;;;;;;;39.70;15.07;;;6.80;99.90;;;;;;5093965;28;20031;-53
2022/01/02 03:40:46;;;;;;;34.85;16.10;;;6.70;99.90;;;;;;5093606;28;20061;-50
2022/01/02 03:43:12;;;;;;;74.78;16.60;;;6.70;99.90;;;;;;5093801;28;20016;-51
2022/01/02 03:45:38;;;;;;;83.88;15.75;;;6.80;99.90;;;;;;5093892;28;20076;-51
2022/01/02 03:48:03;;;;;;;58.08;16.25;;;6.80;99.90;;;;;;5075695;28;20031;-53
2022/01/02 03:50:29;;;;;;;83.40;17.40;;;6.90;99.90;;;;;;5093536;28;20040;-53
2022/01/02 03:52:54;;;;;;;55.50;18.92;;;6.80;99.90;;;;;;5093535;28;20024;-48
2022/01/02 03:55:21;;;;;;;84.90;18.42;;;6.80;99.90;;;;;;5093735;28;20032;-53
2022/01/02 03:57:47;;;;;;;64.50;17.60;;;6.80;99.90;;;;;;5093585;28;20020;-51
2022/01/02 04:00:14;;;;;;;46.90;17.00;;;6.80;99.90;;;;;;5093189;28;20398;-51
2022/01/02 04:02:40;;;;;;;58.97;17.88;;;6.80;99.90;;;;;;5093245;28;20032;-49
2022/01/02 04:05:07;;;;;;;141.60;18.67;;;6.80;99.90;;;;;;5092830;28;20034;-49
2022/01/02 04:07:33;;;;;;;98.03;19.80;;;6.80;99.90;;;;;;5093618;28;20120;-49
2022/01/02 04:10:05;;;;;;;106.55;19.40;;;6.80;99.90;;;;;;5092981;28;20523;-50
2022/01/02 04:12:31;;;;;;;94.75;18.80;;;6.90;99.90;;;;;;5093211;28;20016;-57
2022/01/02 04:14:57;;;;;;;93.25;18.90;;;6.80;99.90;;;;;;5093130;28;20035;-49
2022/01/02 04:17:23;;;;;;;39.28;18.52;;;6.90;99.90;;;;;;5093147;28;20039;-49
2022/01/02 04:19:49;;;;;;;66.03;19.20;;;6.90;99.90;;;;;;5092737;28;20048;-48
2022/01/02 04:22:15;;;;;;;57.75;19.75;;;6.90;99.90;;;;;;5092943;28;20448;-50
2022/01/02 04:24:40;;;;;;;58.95;19.00;;;6.90;99.90;;;;;;5093008;28;20056;-48
2022/01/02 04:27:06;;;;;;;46.03;20.45;;;7.00;99.90;;;;;;5092942;28;20059;-52
2022/01/02 04:29:31;;;;;;;51.08;20.15;;;6.90;99.90;;;;;;5092419;28;20016;-49
2022/01/02 04:31:57;;;;;;;37.53;18.50;;;7.00;99.90;;;;;;5091849;28;20028;-49
2022/01/02 04:34:22;;;;;;;34.83;19.02;;;6.90;99.90;;;;;;5074764;28;20483;-52
2022/01/02 04:36:48;;;;;;;52.50;18.65;;;7.00;99.90;;;;;;5093064;28;20028;-51
2022/01/02 04:39:13;;;;;;;37.05;17.80;;;7.00;99.90;;;;;;5092696;28;20661;-47
2022/01/02 04:41:39;;;;;;;37.42;17.48;;;7.00;99.90;;;;;;5074631;28;20491;-51
2022/01/02 04:44:04;;;;;;;39.10;18.42;;;7.00;99.90;;;;;;5092611;28;20048;-49
2022/01/02 04:46:30;;;;;;;28.70;18.10;;;7.00;99.90;;;;;;5092582;28;20073;-49
2022/01/02 04:48:55;;;;;;;28.38;18.63;;;7.10;99.90;;;;;;5092253;28;20503;-50
2022/01/02 04:51:20;;;;;;;30.58;18.90;;;7.00;99.90;;;;;;5092625;28;20035;-50
2022/01/02 04:53:48;;;;;;;30.33;19.23;;;7.10;99.90;;;;;;5092299;28;20102;-51
2022/01/02 04:56:15;;;;;;;29.33;19.00;;;7.20;99.90;;;;;;5092514;28;20081;-51
2022/01/02 04:58:41;;;;;;;28.15;19.58;;;7.10;99.90;;;;;;5092284;28;20020;-52
2022/01/02 05:01:14;;;;;;;27.55;18.17;;;7.20;99.90;;;;;;5091950;28;20100;-47
2022/01/02 05:03:40;;;;;;;29.90;17.90;;;7.20;99.90;;;;;;5092167;28;20024;-50
2022/01/02 05:06:06;;;;;;;26.88;17.75;;;7.20;99.90;;;;;;5092069;28;20020;-48
2022/01/02 05:08:32;;;;;;;27.50;16.85;;;7.20;99.90;;;;;;5092076;28;20016;-50
2022/01/02 05:10:57;;;;;;;28.92;17.25;;;7.20;99.90;;;;;;5091805;28;20035;-49
2022/01/02 05:13:23;;;;;;;26.10;16.80;;;7.30;99.90;;;;;;5092051;28;20028;-51
2022/01/02 05:15:48;;;;;;;28.65;16.38;;;7.20;99.90;;;;;;5092145;28;20031;-49
2022/01/02 05:18:14;;;;;;;28.00;17.83;;;7.20;99.90;;;;;;5091942;28;20057;-50
2022/01/02 05:20:44;;;;;;;28.52;18.30;;;7.10;99.90;;;;;;5091636;28;20126;-50
2022/01/02 05:23:09;;;;;;;28.35;17.85;;;7.20;99.90;;;;;;5091768;28;20096;-48
2022/01/02 05:25:35;;;;;;;29.92;18.70;;;7.30;99.90;;;;;;5092261;28;20095;-49
2022/01/02 05:28:00;;;;;;;35.90;18.77;;;7.30;99.90;;;;;;5092181;28;20491;-51
2022/01/02 05:30:26;;;;;;;28.20;18.20;;;7.30;99.90;;;;;;5091563;28;20103;-53
2022/01/02 05:32:51;;;;;;;30.45;18.25;;;7.30;99.90;;;;;;5091744;28;20496;-50
2022/01/02 05:35:17;;;;;;;28.15;18.30;;;7.30;99.90;;;;;;5091700;28;20020;-53
2022/01/02 05:37:42;;;;;;;29.55;17.52;;;7.40;99.90;;;;;;5091770;28;20012;-48
2022/01/02 05:40:08;;;;;;;29.63;18.00;;;7.40;99.90;;;;;;5091459;28;20077;-51
2022/01/02 05:42:34;;;;;;;27.20;17.42;;;7.40;99.90;;;;;;5073283;28;20108;-51
2022/01/02 05:44:59;;;;;;;24.55;16.05;;;7.30;99.90;;;;;;5091641;28;20028;-48
2022/01/02 05:47:25;;;;;;;26.42;17.70;;;7.20;99.90;;;;;;5073564;28;20024;-49
2022/01/02 05:49:50;;;;;;;35.22;16.30;;;7.20;99.90;;;;;;5091231;28;20453;-46
2022/01/02 05:52:16;;;;;;;26.02;15.68;;;7.20;99.90;;;;;;5091455;28;20024;-54
2022/01/02 05:54:41;;;;;;;27.45;16.30;;;7.30;99.90;;;;;;5091768;28;20043;-54
2022/01/02 05:57:07;;;;;;;23.00;15.27;;;7.40;99.90;;;;;;5091630;28;20514;-47
2022/01/02 05:59:33;;;;;;;22.40;15.23;;;7.30;99.90;;;;;;5072995;28;20122;-51
2022/01/02 06:01:58;;;;;;;22.50;15.75;;;7.50;99.90;;;;;;5091430;28;20024;-53
2022/01/02 06:04:27;;;;;;;23.63;15.43;;;7.50;99.90;;;;;;5091508;28;20547;-50
2022/01/02 06:06:52;;;;;;;23.55;15.63;;;7.60;99.90;;;;;;5091928;28;20012;-51
2022/01/02 06:09:18;;;;;;;28.38;16.42;;;7.50;99.90;;;;;;5091147;28;20023;-50
2022/01/02 06:11:43;;;;;;;26.35;16.55;;;7.50;99.90;;;;;;5091388;28;20035;-50
2022/01/02 06:14:09;;;;;;;27.73;17.70;;;7.60;99.90;;;;;;5091347;28;20034;-50
2022/01/02 06:16:35;;;;;;;27.60;16.85;;;7.50;99.90;;;;;;5091456;28;20505;-48
2022/01/02 06:19:00;;;;;;;29.08;17.20;;;7.60;99.90;;;;;;5091141;28;20448;-50
2022/01/02 06:21:26;;;;;;;24.92;17.35;;;7.50;99.90;;;;;;5091348;28;20055;-51
2022/01/02 06:23:52;;;;;;;29.45;17.13;;;7.40;99.90;;;;;;5091421;28;20012;-49
2022/01/02 06:26:17;;;;;;;24.48;16.38;;;7.40;99.90;;;;;;5091442;28;20103;-51
2022/01/02 06:28:43;;;;;;;25.70;16.33;;;7.20;99.90;;;;;;5091369;28;20020;-48
2022/01/02 06:31:09;;;;;;;24.23;15.73;;;7.30;99.90;;;;;;5090956;28;20032;-48
2022/01/02 06:33:35;;;;;;;26.33;16.17;;;7.20;99.90;;;;;;5091111;28;20035;-48
2022/01/02 06:36:00;;;;;;;27.52;15.73;;;7.20;99.90;;;;;;5091148;28;20031;-47
2022/01/02 06:38:26;;;;;;;25.77;17.23;;;7.20;99.90;;;;;;5091178;28;20399;-47
2022/01/02 06:40:51;;;;;;;25.40;16.48;;;7.20;99.90;;;;;;5090670;28;20029;-49
2022/01/02 06:43:17;;;;;;;27.85;16.65;;;7.20;99.90;;;;;;5091229;28;20186;-51
2022/01/02 06:45:44;;;;;;;24.70;15.82;;;7.20;99.90;;;;;;5091500;28;20020;-51
2022/01/02 06:48:09;;;;;;;29.92;17.90;;;7.20;99.90;;;;;;5091109;28;20088;-49
2022/01/02 06:50:35;;;;;;;26.95;16.90;;;7.20;99.90;;;;;;5091753;28;20024;-49
2022/01/02 06:53:01;;;;;;;26.00;16.10;;;7.20;99.90;;;;;;5091087;28;20024;-50
2022/01/02 06:55:26;;;;;;;25.38;16.67;;;7.20;99.90;;;;;;5075393;28;20031;-49
2022/01/02 06:57:52;;;;;;;26.70;17.23;;;7.20;99.90;;;;;;5094785;28;20032;-48
2022/01/02 07:00:18;;;;;;;24.40;17.45;;;7.20;99.90;;;;;;5094213;28;20031;-51
2022/01/02 07:02:43;;;;;;;29.50;18.27;;;7.20;99.90;;;;;;5094472;28;20035;-51
2022/01/02 07:05:09;;;;;;;25.75;16.42;;;7.30;99.90;;;;;;5094357;28;20020;-48
2022/01/02 07:07:45;;;;;;;27.70;17.50;;;7.30;99.90;;;;;;5094564;28;20099;-51
2022/01/02 07:10:12;;;;;;;31.92;17.05;;;7.30;99.90;;;;;;5094087;28;20024;-47
2022/01/02 07:12:39;;;;;;;26.92;17.25;;;7.30;99.90;;;;;;5094326;28;20028;-49
2022/01/02 07:15:07;;;;;;;27.60;16.88;;;7.20;99.90;;;;;;5094275;28;20034;-52
2022/01/02 07:17:33;;;;;;;23.70;16.60;;;7.20;99.90;;;;;;5094291;28;20039;-48
2022/01/02 07:19:58;;;;;;;21.50;15.20;;;7.30;99.90;;;;;;5093903;28;20028;-49
2022/01/02 07:22:24;;;;;;;28.17;15.77;;;7.30;99.90;;;;;;5094141;28;20028;-52
2022/01/02 07:24:51;;;;;;;25.45;15.57;;;7.20;99.90;;;;;;5094222;28;20512;-50
2022/01/02 07:27:20;;;;;;;26.33;15.27;;;7.30;99.90;;;;;;5094625;28;20098;-51
2022/01/02 07:29:47;;;;;;;24.50;15.55;;;7.40;99.90;;;;;;5093709;28;20024;-50
2022/01/02 07:32:13;;;;;;;27.48;15.45;;;7.40;99.90;;;;;;5094061;28;20050;-48
2022/01/02 07:34:39;;;;;;;24.17;15.70;;;7.40;99.90;;;;;;5094062;28;20522;-50
2022/01/02 07:37:04;;;;;;;20.15;13.77;;;7.30;99.90;;;;;;5093998;28;20032;-49
2022/01/02 07:39:30;;;;;;;24.25;14.80;;;7.30;99.90;;;;;;5094110;28;20031;-48
2022/01/02 07:41:55;;;;;;;20.50;14.10;;;7.20;99.90;;;;;;5093655;28;20157;-47
2022/01/02 07:44:21;;;;;;;23.25;14.18;;;7.20;99.90;;;;;;5093908;28;20028;-49
2022/01/02 07:46:46;;;;;;;21.80;14.15;;;7.30;99.90;;;;;;5093760;28;20027;-49
2022/01/02 07:49:12;;;;;;;23.60;14.45;;;7.30;99.90;;;;;;5093301;28;20027;-52
2022/01/02 07:51:37;;;;;;;22.30;14.73;;;7.30;99.90;;;;;;5093701;28;20031;-49
2022/01/02 07:54:03;;;;;;;24.08;15.43;;;7.50;99.90;;;;;;5093735;28;20028;-51
2022/01/02 07:56:29;;;;;;;21.67;14.13;;;7.40;99.90;;;;;;5093416;28;20116;-50
2022/01/02 07:58:57;;;;;;;18.15;13.73;;;7.50;99.90;;;;;;5093679;28;20054;-49
2022/01/02 08:01:23;;;;;;;21.77;15.02;;;7.50;99.90;;;;;;5093281;28;20020;-49
2022/01/02 08:03:48;;;;;;;27.00;15.30;;;7.40;99.90;;;;;;5093513;28;20020;-48
2022/01/02 08:06:14;;;;;;;22.02;13.55;;;7.40;99.90;;;;;;5093235;28;20031;-49
2022/01/02 08:08:39;;;;;;;23.05;15.75;;;7.50;99.90;;;;;;5093621;28;20024;-48
2022/01/02 08:11:05;;;;;;;22.58;14.63;;;7.50;99.90;;;;;;5093154;28;20063;-51
2022/01/02 08:13:30;;;;;;;20.25;14.50;;;7.50;99.90;;;;;;5093551;28;20050;-50
2022/01/02 08:15:56;;;;;;;21.33;14.68;;;7.50;99.90;;;;;;5093472;28;20403;-48
2022/01/02 08:18:21;;;;;;;22.38;15.02;;;7.40;99.90;;;;;;5093390;28;20024;-52
2022/01/02 08:20:47;;;;;;;22.20;14.50;;;7.40;99.90;;;;;;5092795;28;20031;-51
2022/01/02 08:23:14;;;;;;;23.60;15.23;;;7.40;99.90;;;;;;5093147;28;20020;-52
2022/01/02 08:25:39;;;;;;;21.77;13.95;;;7.50;99.90;;;;;;5093394;28;20024;-51
2022/01/02 08:28:05;;;;;;;19.77;13.38;;;7.50;99.90;;;;;;5093235;28;20510;-46
2022/01/02 08:30:30;;;;;;;23.17;14.35;;;7.40;99.90;;;;;;5092640;28;20020;-48
2022/01/02 08:32:56;;;;;;;17.08;12.48;;;7.40;99.90;;;;;;5092832;28;20027;-48
2022/01/02 08:35:22;;;;;;;25.90;13.57;;;7.40;99.90;;;;;;5074802;28;20016;-52
2022/01/02 08:37:47;;;;;;;18.25;12.77;;;7.50;99.90;;;;;;5093415;28;20016;-52
2022/01/02 08:40:13;;;;;;;18.95;13.27;;;7.50;99.90;;;;;;5092455;28;20111;-49
2022/01/02 08:42:39;;;;;;;20.27;13.35;;;7.50;99.90;;;;;;5092540;28;20131;-50
2022/01/02 08:45:05;;;;;;;21.73;13.48;;;7.50;99.90;;;;;;5092841;28;20035;-51
2022/01/02 08:47:31;;;;;;;21.17;13.63;;;7.60;99.90;;;;;;5092816;28;20353;-53
2022/01/02 08:49:56;;;;;;;23.70;14.32;;;7.60;99.90;;;;;;5092236;28;20115;-53
2022/01/02 08:52:24;;;;;;;20.33;13.77;;;7.70;99.90;;;;;;5092957;28;20059;-47
2022/01/02 08:54:50;;;;;;;18.50;12.75;;;7.70;99.90;;;;;;5092675;28;20024;-48
2022/01/02 08:57:16;;;;;;;21.42;13.43;;;7.70;99.90;;;;;;5092562;28;20069;-53
2022/01/02 08:59:41;;;;;;;20.58;14.13;;;7.80;99.90;;;;;;5091689;28;20504;-48
2022/01/02 09:02:07;;;;;;;25.98;13.88;;;7.80;99.90;;;;;;5092152;28;20024;-47
2022/01/02 09:04:34;;;;;;;17.88;12.63;;;7.80;99.90;;;;;;5092060;28;20044;-50
2022/01/02 09:07:01;;;;;;;21.55;14.82;;;7.90;99.90;;;;;;5090177;28;20024;-49
2022/01/02 09:09:27;;;;;;;20.60;13.13;;;7.90;99.90;;;;;;5058850;28;20030;-48
2022/01/02 09:11:52;;;;;;;20.52;13.05;;;8.00;99.90;;;;;;5088283;28;20024;-49
2022/01/02 09:14:18;;;;;;;20.92;13.55;;;8.00;99.90;;;;;;5091871;28;20392;-48
2022/01/02 09:16:44;;;;;;;21.00;13.18;;;8.00;99.90;;;;;;5091288;28;20050;-48
2022/01/02 09:19:11;;;;;;;21.60;13.65;;;8.00;99.90;;;;;;5091585;28;20039;-51
2022/01/02 09:21:37;;;;;;;21.70;13.75;;;8.00;99.90;;;;;;5092051;28;20027;-47
2022/01/02 09:24:03;;;;;;;19.15;13.80;;;8.00;99.90;;;;;;5089729;28;20020;-48
2022/01/02 09:26:29;;;;;;;19.73;14.27;;;8.10;99.90;;;;;;5081365;28;20035;-49
2022/01/02 09:28:54;;;;;;;21.45;13.85;;;8.20;99.90;;;;;;5087308;28;20020;-50
2022/01/02 09:31:20;;;;;;;18.45;13.13;;;8.20;99.90;;;;;;5089188;28;20514;-52
2022/01/02 09:33:45;;;;;;;22.05;14.60;;;8.20;99.90;;;;;;5091218;28;20150;-53
2022/01/02 09:36:11;;;;;;;18.75;13.48;;;8.10;99.90;;;;;;5091909;28;20028;-46
2022/01/02 09:38:37;;;;;;;17.33;12.35;;;8.10;99.90;;;;;;5091096;28;20035;-49
2022/01/02 09:41:04;;;;;;;21.70;13.48;;;8.10;99.90;;;;;;5091349;28;20024;-48
2022/01/02 09:43:30;;;;;;;21.10;13.77;;;8.10;99.90;;;;;;5091675;28;20016;-52
2022/01/02 09:45:55;;;;;;;19.52;13.38;;;8.10;99.90;;;;;;5091809;28;20016;-50
2022/01/02 09:48:21;;;;;;;17.63;13.10;;;8.10;99.90;;;;;;5091102;28;20028;-49
2022/01/02 09:50:47;;;;;;;19.90;14.43;;;8.10;99.90;;;;;;5091743;28;20028;-48
2022/01/02 09:53:13;;;;;;;18.30;12.90;;;8.20;99.90;;;;;;5091760;28;20432;-49
2022/01/02 09:55:39;;;;;;;19.05;12.85;;;8.20;99.90;;;;;;5091835;28;20020;-50
2022/01/02 09:58:10;;;;;;;20.27;13.70;;;8.20;99.90;;;;;;5091736;28;20484;-52
2022/01/02 10:00:36;;;;;;;19.50;13.80;;;8.30;99.90;;;;;;5091375;28;20307;-51
2022/01/02 10:03:05;;;;;;;19.55;12.43;;;8.30;99.90;;;;;;5091657;28;20024;-50
2022/01/02 10:05:48;;;;;;;19.92;14.02;;;8.40;99.90;;;;;;5091924;28;20118;-48
2022/01/02 10:08:25;;;;;;;17.60;13.57;;;8.40;99.90;;;;;;5073691;28;20052;-50
2022/01/02 10:11:07;;;;;;;17.83;12.73;;;8.40;99.90;;;;;;5091236;28;20103;-50
2022/01/02 10:14:04;;;;;;;18.95;13.35;;;8.40;99.90;;;;;;5091490;28;20028;-50
2022/01/02 10:16:33;;;;;;;20.48;13.85;;;8.40;99.90;;;;;;5072224;28;20038;-50
2022/01/02 10:19:18;;;;;;;23.17;14.40;;;8.40;99.90;;;;;;5091369;28;20027;-48
2022/01/02 10:21:54;;;;;;;19.88;13.30;;;8.30;99.90;;;;;;5091370;28;20081;-49
2022/01/02 10:24:42;;;;;;;22.98;14.60;;;8.40;99.90;;;;;;5091452;28;20095;-52
2022/01/02 10:27:18;;;;;;;19.58;13.68;;;8.40;99.90;;;;;;5091878;28;20020;-51
2022/01/02 10:29:55;;;;;;;22.27;13.63;;;8.40;99.90;;;;;;5092893;28;20086;-51
2022/01/02 10:32:30;;;;;;;22.70;14.80;;;8.40;99.90;;;;;;5077413;28;20115;-50
2022/01/02 10:35:14;;;;;;;25.73;14.30;;;8.30;99.90;;;;;;5095524;28;20403;-51
2022/01/02 10:37:42;;;;;;;20.02;13.63;;;8.20;99.90;;;;;;5095244;28;20024;-48
2022/01/02 10:40:38;;;;;;;17.25;11.90;;;8.30;99.90;;;;;;5095015;28;20480;-49
2022/01/02 10:43:07;;;;;;;19.92;12.40;;;8.20;99.90;;;;;;5095263;28;20024;-48
2022/01/02 10:45:43;;;;;;;18.92;13.20;;;8.20;99.90;;;;;;5095180;28;20026;-49
2022/01/02 10:48:10;;;;;;;;;;;8.30;99.90;;;;;;5095282;28;20158;-47
2022/01/02 10:50:37;;;;;;;17.02;12.60;;;8.30;99.90;;;;;;5094424;28;20026;-51
2022/01/02 10:53:14;;;;;;;15.15;11.50;;;8.20;99.90;;;;;;5094811;28;20099;-48
2022/01/02 10:55:44;;;;;;;18.73;12.35;;;8.30;99.90;;;;;;5094720;28;20027;-49
2022/01/02 10:58:10;;;;;;;17.30;12.10;;;8.30;99.90;;;;;;5094634;28;20363;-54
2022/01/02 11:00:36;;;;;;;16.80;11.82;;;8.40;99.90;;;;;;5076081;28;20110;-47
2022/01/02 11:03:05;;;;;;;19.95;13.02;;;8.50;99.90;;;;;;5094801;28;20038;-49
2022/01/02 11:05:31;;;;;;;19.00;11.98;;;8.50;99.90;;;;;;5092089;28;20031;-51
2022/01/02 11:07:59;;;;;;;15.73;11.13;;;8.50;99.90;;;;;;5092511;28;20423;-51
2022/01/02 11:10:27;;;;;;;15.55;11.82;;;8.40;99.90;;;;;;5093256;28;20112;-47
2022/01/02 11:12:54;;;;;;;15.05;10.45;;;8.50;99.90;;;;;;5093967;28;20020;-47
2022/01/02 11:15:22;;;;;;;17.52;11.45;;;8.40;99.90;;;;;;5094117;28;20047;-47
2022/01/02 11:17:49;;;;;;;15.00;10.23;;;8.40;99.90;;;;;;5093795;28;20035;-47
2022/01/02 11:20:20;;;;;;;16.95;11.15;;;8.50;99.90;;;;;;5093827;28;20043;-48
2022/01/02 11:22:59;;;;;;;14.15;9.65;;;8.60;99.90;;;;;;5093561;28;20047;-49
2022/01/02 11:25:50;;;;;;;16.55;11.82;;;8.80;99.90;;;;;;5093255;28;20020;-50
2022/01/02 11:28:37;;;;;;;18.15;11.40;;;8.90;99.90;;;;;;5094887;28;20012;-51
2022/01/02 11:31:05;;;;;;;13.13;9.93;;;9.00;99.90;;;;;;5085872;28;20024;-50
2022/01/02 11:33:40;;;;;;;13.93;9.27;;;9.00;99.90;;;;;;5073994;28;20021;-48
2022/01/02 11:36:26;;;;;;;14.80;9.67;;;8.90;99.90;;;;;;5088692;28;20032;-48
2022/01/02 11:38:59;;;;;;;14.25;10.63;;;8.80;99.90;;;;;;5093471;28;20028;-48
2022/01/02 11:41:56;;;;;;;15.70;9.95;;;8.80;99.90;;;;;;5080685;28;20024;-44
2022/01/02 11:44:23;;;;;;;14.88;9.60;;;8.70;99.90;;;;;;5091346;28;20319;-46
2022/01/02 11:46:55;;;;;;;17.50;10.15;;;8.70;99.90;;;;;;5094025;28;20279;-46
2022/01/02 11:49:23;;;;;;;14.00;9.73;;;8.80;99.90;;;;;;5093210;28;20487;-46
2022/01/02 11:51:49;;;;;;;16.48;10.50;;;8.80;99.90;;;;;;5093701;28;20032;-47
2022/01/02 11:54:46;;;;;;;12.80;9.40;;;8.90;99.90;;;;;;5089021;28;20042;-48
2022/01/02 11:57:14;;;;;;;13.63;9.68;;;8.90;99.90;;;;;;5090406;28;20032;-48
2022/01/02 11:59:40;;;;;;;13.18;8.90;;;8.90;99.90;;;;;;5077343;28;20361;-47
2022/01/02 12:02:25;;;;;;;9.48;7.90;;;9.00;99.90;;;;;;5093612;28;20039;-46
2022/01/02 12:07:40;;;;;;;10.57;8.13;;;9.10;99.90;;;;;;5094050;28;20028;-48
2022/01/02 12:10:15;;;;;;;10.30;7.50;;;9.10;99.90;;;;;;5093311;28;20020;-50
2022/01/02 12:13:10;;;;;;;7.85;6.47;;;9.20;99.90;;;;;;5093011;28;20440;-47
2022/01/02 12:15:38;;;;;;;9.77;7.20;;;9.30;99.90;;;;;;5084045;28;20064;-48
2022/01/02 12:18:24;;;;;;;10.35;7.05;;;9.30;99.90;;;;;;5083052;28;20488;-48
2022/01/02 12:20:50;;;;;;;8.73;6.38;;;9.40;99.90;;;;;;5092640;28;20365;-49
2022/01/02 12:23:33;;;;;;;12.05;7.55;;;9.50;99.90;;;;;;5093018;28;20027;-51
2022/01/02 12:26:16;;;;;;;10.85;6.68;;;9.50;99.90;;;;;;5079331;28;20103;-45
2022/01/02 12:29:01;;;;;;;10.02;6.80;;;9.60;99.90;;;;;;5092525;28;20028;-50
2022/01/02 12:31:36;;;;;;;9.10;6.93;;;9.70;99.90;;;;;;5092268;28;20024;-50
2022/01/02 12:34:03;;;;;;;10.13;6.90;;;9.70;99.90;;;;;;5091676;28;20077;-48
2022/01/02 12:36:29;;;;;;;10.82;7.22;;;9.80;99.90;;;;;;5092525;28;20433;-53
2022/01/02 12:39:00;;;;;;;50.60;28.52;;;9.80;99.90;;;;;;5092483;28;20038;-52
2022/01/02 12:41:31;;;;;;;10.10;6.93;;;9.80;99.90;;;;;;5092391;28;20028;-52
2022/01/02 12:44:04;;;;;;;16.00;7.35;;;9.90;99.90;;;;;;5074681;28;20035;-53
2022/01/02 12:46:50;;;;;;;8.48;6.43;;;9.90;99.90;;;;;;5092929;28;20495;-51
2022/01/02 12:49:19;;;;;;;7.95;6.88;;;10.00;99.90;;;;;;5092420;28;20032;-52
2022/01/02 12:51:46;;;;;;;8.07;5.90;;;10.10;99.90;;;;;;5091575;28;20039;-51
2022/01/02 12:54:18;;;;;;;10.68;6.25;;;10.10;99.90;;;;;;5092678;28;20036;-49